Time,TemperatureF,DewpointF,PressureIn,WindDirection,WindDirectionDegrees,WindSpeedMPH,WindSpeedGustMPH,Humidity,HourlyPrecipIn,Conditions,Clouds,dailyrainin,SoftwareType,DateUTC
2013-03-29 00:00:00,38.0,26.9,30.01,WSW,247,0.0,0.0,64,0.00,,,0.00,Weather View 32 v70,2013-03-29 04:00:00,
2013-03-29 00:05:00,38.0,26.9,30.01,WSW,247,0.0,0.0,64,0.00,,,0.00,Weather View 32 v70,2013-03-29 04:05:00,
2013-03-29 00:10:00,38.0,26.9,30.01,WSW,247,0.0,0.0,64,0.00,,,0.00,Weather View 32 v70,2013-03-29 04:10:00,
2013-03-29 00:15:00,38.0,26.9,30.01,WSW,247,0.0,0.0,64,0.00,,,0.00,Weather View 32 v70,2013-03-29 04:15:00,
2013-03-29 00:20:00,38.0,26.9,30.01,WSW,247,0.0,0.0,64,0.00,,,0.00,Weather View 32 v70,2013-03-29 04:20:00,
2013-03-29 00:25:00,38.0,26.9,30.01,WSW,247,0.0,0.0,64,0.00,,,0.00,Weather View 32 v70,2013-03-29 04:25:00,
2013-03-29 00:30:00,38.0,26.5,30.01,WSW,247,0.0,0.0,63,0.00,,,0.00,Weather View 32 v70,2013-03-29 04:30:00,
2013-03-29 00:35:00,38.0,26.5,30.01,WSW,247,0.0,0.0,63,0.00,,,0.00,Weather View 32 v70,2013-03-29 04:35:00,
2013-03-29 00:40:00,38.0,26.5,30.01,WSW,247,0.0,0.0,63,0.00,,,0.00,Weather View 32 v70,2013-03-29 04:40:00,
2013-03-29 00:45:00,38.0,25.7,30.02,WSW,247,0.0,0.0,61,0.00,,,0.00,Weather View 32 v70,2013-03-29 04:45:00,
2013-03-29 00:50:00,38.0,25.7,30.02,WSW,247,0.0,0.0,61,0.00,,,0.00,Weather View 32 v70,2013-03-29 04:50:00,
2013-03-29 00:55:00,38.0,26.5,30.02,WSW,247,0.0,0.0,63,0.00,,,0.00,Weather View 32 v70,2013-03-29 04:55:00,
2013-03-29 01:00:00,37.0,25.9,30.02,WSW,247,0.0,0.0,64,0.00,,,0.00,Weather View 32 v70,2013-03-29 05:00:00,
2013-03-29 01:05:00,37.0,26.3,30.02,WSW,247,0.0,0.0,65,0.00,,,0.00,Weather View 32 v70,2013-03-29 05:05:00,
2013-03-29 01:10:00,36.0,25.4,30.02,WSW,247,0.0,0.0,65,0.00,,,0.00,Weather View 32 v70,2013-03-29 05:10:00,
2013-03-29 01:15:00,36.0,26.1,30.02,WSW,247,0.0,0.0,67,0.00,,,0.00,Weather View 32 v70,2013-03-29 05:15:00,
2013-03-29 01:20:00,35.0,25.1,30.02,WSW,247,0.0,0.0,67,0.00,,,0.00,Weather View 32 v70,2013-03-29 05:20:00,
2013-03-29 01:25:00,35.0,25.1,30.01,WSW,247,0.0,0.0,67,0.00,,,0.00,Weather View 32 v70,2013-03-29 05:25:00,
2013-03-29 01:30:00,34.0,24.2,30.01,WSW,247,0.0,0.0,67,0.00,,,0.00,Weather View 32 v70,2013-03-29 05:30:00,
2013-03-29 01:35:00,34.0,24.2,30.01,WSW,247,0.0,0.0,67,0.00,,,0.00,Weather View 32 v70,2013-03-29 05:35:00,
2013-03-29 01:40:00,34.0,24.2,30.01,WSW,247,0.0,0.0,67,0.00,,,0.00,Weather View 32 v70,2013-03-29 05:40:00,
2013-03-29 01:45:00,33.0,22.9,30.01,WSW,247,0.0,0.0,66,0.00,,,0.00,Weather View 32 v70,2013-03-29 05:45:00,
2013-03-29 01:50:00,33.0,22.5,30.01,WSW,247,0.0,0.0,65,0.00,,,0.00,Weather View 32 v70,2013-03-29 05:50:00,
2013-03-29 01:55:00,33.0,22.9,30.01,WSW,247,0.0,0.0,66,0.00,,,0.00,Weather View 32 v70,2013-03-29 05:55:00,
2013-03-29 02:00:00,32.0,21.9,30.01,WSW,247,0.0,0.0,66,0.00,,,0.00,Weather View 32 v70,2013-03-29 06:00:00,
2013-03-29 02:05:00,32.0,21.9,30.01,WSW,247,0.0,0.0,66,0.00,,,0.00,Weather View 32 v70,2013-03-29 06:05:00,
2013-03-29 02:10:00,32.0,21.6,30.01,WSW,247,0.0,0.0,65,0.00,,,0.00,Weather View 32 v70,2013-03-29 06:10:00,
2013-03-29 02:15:00,31.0,20.2,30.01,WSW,247,0.0,0.0,64,0.00,,,0.00,Weather View 32 v70,2013-03-29 06:15:00,
2013-03-29 02:20:00,31.0,19.9,30.01,WSW,247,0.0,0.0,63,0.00,,,0.00,Weather View 32 v70,2013-03-29 06:20:00,
2013-03-29 02:25:00,31.0,19.9,30.01,WSW,247,0.0,0.0,63,0.00,,,0.00,Weather View 32 v70,2013-03-29 06:25:00,
2013-03-29 02:30:00,31.0,19.5,30.01,WSW,247,0.0,0.0,62,0.00,,,0.00,Weather View 32 v70,2013-03-29 06:30:00,
2013-03-29 02:35:00,31.0,18.7,30.00,WSW,247,0.0,0.0,60,0.00,,,0.00,Weather View 32 v70,2013-03-29 06:35:00,
2013-03-29 02:40:00,31.0,18.7,30.00,WSW,247,0.0,0.0,60,0.00,,,0.00,Weather View 32 v70,2013-03-29 06:40:00,
2013-03-29 02:45:00,31.0,18.7,30.00,WSW,247,0.0,0.0,60,0.00,,,0.00,Weather View 32 v70,2013-03-29 06:45:00,
2013-03-29 02:50:00,30.0,17.8,30.00,WSW,247,0.0,0.0,60,0.00,,,0.00,Weather View 32 v70,2013-03-29 06:50:00,
2013-03-29 02:55:00,30.0,17.8,30.00,WSW,247,0.0,0.0,60,0.00,,,0.00,Weather View 32 v70,2013-03-29 06:55:00,
2013-03-29 03:00:00,30.0,17.8,30.00,WSW,247,0.0,0.0,60,0.00,,,0.00,Weather View 32 v70,2013-03-29 07:00:00,
2013-03-29 03:05:00,30.0,17.0,30.00,WSW,247,0.0,0.0,58,0.00,,,0.00,Weather View 32 v70,2013-03-29 07:05:00,
2013-03-29 03:10:00,29.0,16.1,29.99,WSW,247,0.0,0.0,58,0.00,,,0.00,Weather View 32 v70,2013-03-29 07:10:00,
2013-03-29 03:15:00,29.0,15.7,29.99,WSW,247,0.0,0.0,57,0.00,,,0.00,Weather View 32 v70,2013-03-29 07:15:00,
2013-03-29 03:20:00,29.0,15.7,29.99,WSW,247,0.0,0.0,57,0.00,,,0.00,Weather View 32 v70,2013-03-29 07:20:00,
2013-03-29 03:25:00,29.0,14.8,29.99,WSW,247,0.0,0.0,55,0.00,,,0.00,Weather View 32 v70,2013-03-29 07:25:00,
2013-03-29 03:30:00,29.0,14.8,29.99,WSW,247,0.0,0.0,55,0.00,,,0.00,Weather View 32 v70,2013-03-29 07:30:00,
2013-03-29 03:35:00,29.0,14.0,29.99,WSW,247,0.0,0.0,53,0.00,,,0.00,Weather View 32 v70,2013-03-29 07:35:00,
2013-03-29 03:40:00,29.0,14.0,29.99,WSW,247,0.0,0.0,53,0.00,,,0.00,Weather View 32 v70,2013-03-29 07:40:00,
2013-03-29 03:45:00,29.0,13.6,29.99,WSW,247,0.0,0.0,52,0.00,,,0.00,Weather View 32 v70,2013-03-29 07:45:00,
2013-03-29 03:50:00,28.0,12.6,29.99,WSW,247,0.0,0.0,52,0.00,,,0.00,Weather View 32 v70,2013-03-29 07:50:00,
2013-03-29 03:55:00,28.0,12.6,29.99,WSW,247,0.0,0.0,52,0.00,,,0.00,Weather View 32 v70,2013-03-29 07:55:00,
2013-03-29 04:00:00,28.0,12.2,29.99,WSW,247,0.0,0.0,51,0.00,,,0.00,Weather View 32 v70,2013-03-29 08:00:00,
2013-03-29 04:05:00,28.0,11.3,29.99,WSW,247,0.0,0.0,49,0.00,,,0.00,Weather View 32 v70,2013-03-29 08:05:00,
2013-03-29 04:10:00,28.0,10.8,29.99,WSW,247,0.0,0.0,48,0.00,,,0.00,Weather View 32 v70,2013-03-29 08:10:00,
2013-03-29 04:15:00,28.0,10.8,29.99,WSW,247,0.0,0.0,48,0.00,,,0.00,Weather View 32 v70,2013-03-29 08:15:00,
2013-03-29 04:20:00,27.0,9.9,29.99,WSW,247,0.0,0.0,48,0.00,,,0.00,Weather View 32 v70,2013-03-29 08:20:00,
2013-03-29 04:25:00,27.0,9.9,29.99,WSW,247,0.0,0.0,48,0.00,,,0.00,Weather View 32 v70,2013-03-29 08:25:00,
2013-03-29 04:30:00,27.0,9.0,29.98,WSW,247,0.0,0.0,46,0.00,,,0.00,Weather View 32 v70,2013-03-29 08:30:00,
2013-03-29 04:35:00,27.0,7.5,29.98,WSW,247,0.0,0.0,43,0.00,,,0.00,Weather View 32 v70,2013-03-29 08:35:00,
2013-03-29 04:40:00,27.0,7.5,29.99,WSW,247,0.0,0.0,43,0.00,,,0.00,Weather View 32 v70,2013-03-29 08:40:00,
2013-03-29 04:45:00,27.0,6.9,29.98,WSW,247,0.0,0.0,42,0.00,,,0.00,Weather View 32 v70,2013-03-29 08:45:00,
2013-03-29 04:50:00,28.0,4.5,29.98,WSW,247,0.0,0.0,36,0.00,,,0.00,Weather View 32 v70,2013-03-29 08:50:00,
2013-03-29 04:55:00,28.0,3.2,29.98,WSW,247,0.0,0.0,34,0.00,,,0.00,Weather View 32 v70,2013-03-29 08:55:00,
2013-03-29 05:00:00,28.0,3.2,29.98,WSW,247,0.0,0.0,34,0.00,,,0.00,Weather View 32 v70,2013-03-29 09:00:00,
2013-03-29 05:05:00,27.0,3.0,29.98,WSW,247,0.0,0.0,35,0.00,,,0.00,Weather View 32 v70,2013-03-29 09:05:00,
2013-03-29 05:10:00,27.0,3.0,29.98,WSW,247,0.0,0.0,35,0.00,,,0.00,Weather View 32 v70,2013-03-29 09:10:00,
2013-03-29 05:15:00,27.0,3.6,29.98,WSW,247,0.0,0.0,36,0.00,,,0.00,Weather View 32 v70,2013-03-29 09:15:00,
2013-03-29 05:21:00,26.0,2.1,29.98,WSW,247,0.0,0.0,35,0.00,,,0.00,Weather View 32 v70,2013-03-29 09:21:00,
2013-03-29 05:26:00,27.0,3.0,29.98,WSW,247,0.0,0.0,35,0.00,,,0.00,Weather View 32 v70,2013-03-29 09:26:00,
2013-03-29 05:31:00,27.0,3.0,29.98,WSW,247,0.0,0.0,35,0.01,,,0.00,Weather View 32 v70,2013-03-29 09:31:00,
2013-03-29 05:36:00,27.0,3.0,29.98,WSW,247,0.0,0.0,35,0.00,,,0.00,Weather View 32 v70,2013-03-29 09:36:00,
2013-03-29 05:41:00,27.0,3.0,29.98,WSW,247,0.0,0.0,35,0.00,,,0.00,Weather View 32 v70,2013-03-29 09:41:00,
2013-03-29 05:46:00,27.0,3.0,29.99,WSW,247,0.0,0.0,35,0.00,,,0.00,Weather View 32 v70,2013-03-29 09:46:00,
2013-03-29 05:51:00,27.0,3.0,29.99,WSW,247,0.0,0.0,35,0.00,,,0.00,Weather View 32 v70,2013-03-29 09:51:00,
2013-03-29 05:56:00,27.0,2.3,29.98,WSW,247,0.0,0.0,34,0.00,,,0.00,Weather View 32 v70,2013-03-29 09:56:00,
2013-03-29 06:01:00,27.0,2.3,29.99,WSW,247,0.0,0.0,34,0.00,,,0.00,Weather View 32 v70,2013-03-29 10:01:00,
2013-03-29 06:06:00,27.0,2.3,29.99,WSW,247,0.0,0.0,34,0.00,,,0.00,Weather View 32 v70,2013-03-29 10:06:00,
2013-03-29 06:11:00,27.0,1.7,29.99,WSW,247,0.0,0.0,33,0.00,,,0.00,Weather View 32 v70,2013-03-29 10:11:00,
2013-03-29 06:16:00,27.0,1.7,29.99,WSW,247,0.0,0.0,33,0.00,,,0.00,Weather View 32 v70,2013-03-29 10:16:00,
2013-03-29 06:21:00,27.0,1.7,29.99,WSW,247,0.0,0.0,33,0.00,,,0.00,Weather View 32 v70,2013-03-29 10:21:00,
2013-03-29 06:26:00,27.0,1.7,29.99,WSW,247,0.0,0.0,33,0.00,,,0.00,Weather View 32 v70,2013-03-29 10:26:00,
2013-03-29 06:31:00,27.0,1.0,29.99,WSW,247,0.0,0.0,32,0.00,,,0.00,Weather View 32 v70,2013-03-29 10:31:00,
2013-03-29 06:36:00,27.0,1.0,29.99,WSW,247,0.0,0.0,32,0.00,,,0.00,Weather View 32 v70,2013-03-29 10:36:00,
2013-03-29 06:41:00,27.0,1.0,29.99,WSW,247,0.0,0.0,32,0.00,,,0.00,Weather View 32 v70,2013-03-29 10:41:00,
2013-03-29 06:46:00,27.0,1.0,29.99,WSW,247,0.0,0.0,32,0.00,,,0.00,Weather View 32 v70,2013-03-29 10:46:00,
2013-03-29 06:51:00,27.0,-0.3,29.99,WSW,247,0.0,0.0,30,0.00,,,0.00,Weather View 32 v70,2013-03-29 10:51:00,
2013-03-29 06:56:00,27.0,-0.3,29.99,WSW,247,0.0,0.0,30,0.00,,,0.00,Weather View 32 v70,2013-03-29 10:56:00,
2013-03-29 07:01:00,27.0,-0.3,29.99,WSW,247,0.0,0.0,30,0.00,,,0.00,Weather View 32 v70,2013-03-29 11:01:00,
2013-03-29 07:06:00,27.0,-1.0,29.99,WSW,247,0.0,0.0,29,0.00,,,0.00,Weather View 32 v70,2013-03-29 11:06:00,
2013-03-29 07:11:00,28.0,-0.9,29.99,WSW,247,0.0,0.0,28,0.00,,,0.00,Weather View 32 v70,2013-03-29 11:11:00,
2013-03-29 07:16:00,28.0,-0.9,30.00,WSW,247,0.0,0.0,28,0.00,,,0.00,Weather View 32 v70,2013-03-29 11:16:00,
2013-03-29 07:21:00,29.0,-1.6,30.00,WSW,247,0.0,0.0,26,0.00,,,0.00,Weather View 32 v70,2013-03-29 11:21:00,
2013-03-29 07:26:00,29.0,-3.3,30.00,WSW,247,0.0,0.0,24,0.00,,,0.00,Weather View 32 v70,2013-03-29 11:26:00,
2013-03-29 07:31:00,29.0,-4.2,30.01,WSW,247,0.0,0.0,23,0.00,,,0.00,Weather View 32 v70,2013-03-29 11:31:00,
2013-03-29 07:36:00,30.0,-5.2,30.01,WSW,247,0.0,0.0,21,0.00,,,0.00,Weather View 32 v70,2013-03-29 11:36:00,
2013-03-29 07:41:00,32.0,-6.7,30.01,WSW,247,0.0,0.0,18,0.00,,,0.00,Weather View 32 v70,2013-03-29 11:41:00,
2013-03-29 07:46:00,33.0,-7.1,30.01,WSW,247,0.0,0.0,17,0.00,,,0.00,Weather View 32 v70,2013-03-29 11:46:00,
2013-03-29 07:52:00,33.0,-11.0,30.02,WSW,247,0.0,0.0,14,0.00,,,0.00,Weather View 32 v70,2013-03-29 11:52:00,
2013-03-29 07:57:00,34.0,-13.3,30.02,WSW,247,0.0,0.0,12,0.00,,,0.00,Weather View 32 v70,2013-03-29 11:57:00,
2013-03-29 08:02:00,35.0,-16.1,30.02,WSW,247,0.0,0.0,10,0.00,,,0.00,Weather View 32 v70,2013-03-29 12:02:00,
2013-03-29 08:07:00,36.0,-25.1,30.03,WNW,292,0.0,4.0,6,0.00,,,0.00,Weather View 32 v70,2013-03-29 12:07:00,
2013-03-29 08:12:00,37.0,-9.3,30.03,WSW,247,0.0,4.0,13,0.00,,,0.00,Weather View 32 v70,2013-03-29 12:12:00,
2013-03-29 08:17:00,39.0,11.6,30.03,WNW,292,1.0,4.0,32,0.00,,,0.00,Weather View 32 v70,2013-03-29 12:17:00,
2013-03-29 08:22:00,40.0,19.3,30.04,WSW,247,2.0,5.0,43,0.00,,,0.00,Weather View 32 v70,2013-03-29 12:22:00,
2013-03-29 08:27:00,42.0,20.5,30.04,North,360,0.0,5.0,42,0.00,,,0.00,Weather View 32 v70,2013-03-29 12:27:00,
2013-03-29 08:32:00,43.0,33.1,30.04,West,270,3.0,6.0,68,0.00,,,0.00,Weather View 32 v70,2013-03-29 12:32:00,
2013-03-29 08:37:00,44.0,36.2,30.05,West,270,3.0,6.0,74,0.00,,,0.00,Weather View 32 v70,2013-03-29 12:37:00,
2013-03-29 08:42:00,45.0,33.5,30.05,West,270,0.0,6.0,64,0.00,,,0.00,Weather View 32 v70,2013-03-29 12:42:00,
2013-03-29 08:47:00,46.0,39.2,30.05,ENE,67,3.0,6.0,77,0.00,,,0.00,Weather View 32 v70,2013-03-29 12:47:00,
2013-03-29 08:52:00,47.0,39.8,30.05,East,90,3.0,7.0,76,0.00,,,0.00,Weather View 32 v70,2013-03-29 12:52:00,
2013-03-29 08:57:00,47.0,40.2,30.05,ENE,67,6.0,11.0,77,0.00,,,0.00,Weather View 32 v70,2013-03-29 12:57:00,
2013-03-29 09:02:00,47.0,40.2,30.06,ENE,67,3.0,11.0,77,0.00,,,0.00,Weather View 32 v70,2013-03-29 13:02:00,
2013-03-29 09:07:00,47.0,40.2,30.06,ENE,67,6.0,11.0,77,0.00,,,0.00,Weather View 32 v70,2013-03-29 13:07:00,
2013-03-29 09:12:00,47.0,40.5,30.06,ESE,112,1.0,11.0,78,0.00,,,0.00,Weather View 32 v70,2013-03-29 13:12:00,
2013-03-29 09:17:00,47.0,40.5,30.06,West,270,0.0,11.0,78,0.00,,,0.00,Weather View 32 v70,2013-03-29 13:17:00,
2013-03-29 09:22:00,47.0,40.8,30.06,East,90,2.0,12.0,79,0.00,,,0.00,Weather View 32 v70,2013-03-29 13:22:00,
2013-03-29 09:27:00,47.0,41.1,30.06,ENE,67,5.0,12.0,80,0.00,,,0.00,Weather View 32 v70,2013-03-29 13:27:00,
2013-03-29 09:32:00,47.0,40.5,30.06,ENE,67,2.0,12.0,78,0.00,,,0.00,Weather View 32 v70,2013-03-29 13:32:00,
2013-03-29 09:37:00,47.0,40.8,30.06,East,90,1.0,12.0,79,0.00,,,0.00,Weather View 32 v70,2013-03-29 13:37:00,
2013-03-29 09:42:00,47.0,40.5,30.06,ENE,67,2.0,12.0,78,0.00,,,0.00,Weather View 32 v70,2013-03-29 13:42:00,
2013-03-29 09:47:00,48.0,41.5,30.06,SW,225,1.0,12.0,78,0.00,,,0.00,Weather View 32 v70,2013-03-29 13:47:00,
2013-03-29 09:52:00,48.0,41.8,30.06,ENE,67,6.0,12.0,79,0.00,,,0.00,Weather View 32 v70,2013-03-29 13:52:00,
2013-03-29 09:57:00,48.0,41.5,30.06,ENE,67,9.0,12.0,78,0.00,,,0.00,Weather View 32 v70,2013-03-29 13:57:00,
2013-03-29 10:02:00,48.0,41.5,30.07,WSW,247,1.0,12.0,78,0.00,,,0.00,Weather View 32 v70,2013-03-29 14:02:00,
2013-03-29 10:07:00,48.0,41.5,30.07,ENE,67,4.0,12.0,78,0.00,,,0.00,Weather View 32 v70,2013-03-29 14:07:00,
2013-03-29 10:12:00,48.0,41.5,30.07,NE,45,0.0,12.0,78,0.00,,,0.00,Weather View 32 v70,2013-03-29 14:12:00,
2013-03-29 10:17:00,48.0,41.5,30.07,WNW,292,1.0,12.0,78,0.00,,,0.00,Weather View 32 v70,2013-03-29 14:17:00,
2013-03-29 10:22:00,49.0,42.4,30.07,ENE,67,7.0,11.0,78,0.00,,,0.00,Weather View 32 v70,2013-03-29 14:22:00,
2013-03-29 10:27:00,49.0,42.4,30.07,West,270,0.0,11.0,78,0.00,,,0.00,Weather View 32 v70,2013-03-29 14:27:00,
2013-03-29 10:32:00,50.0,43.4,30.07,ENE,67,5.0,11.0,78,0.00,,,0.00,Weather View 32 v70,2013-03-29 14:32:00,
2013-03-29 10:37:00,50.0,43.1,30.07,ENE,67,3.0,11.0,77,0.00,,,0.00,Weather View 32 v70,2013-03-29 14:37:00,
2013-03-29 10:42:00,50.0,43.1,30.07,ENE,67,4.0,11.0,77,0.00,,,0.00,Weather View 32 v70,2013-03-29 14:42:00,
2013-03-29 10:48:00,50.0,42.7,30.07,ESE,112,1.0,11.0,76,0.00,,,0.00,Weather View 32 v70,2013-03-29 14:48:00,
2013-03-29 10:53:00,51.0,43.3,30.07,West,270,0.0,11.0,75,0.00,,,0.00,Weather View 32 v70,2013-03-29 14:53:00,
2013-03-29 10:58:00,51.0,42.3,30.07,ENE,67,4.0,11.0,72,0.00,,,0.00,Weather View 32 v70,2013-03-29 14:58:00,
2013-03-29 11:03:00,52.0,40.6,30.08,ENE,67,3.0,9.0,65,0.00,,,0.00,Weather View 32 v70,2013-03-29 15:03:00,
2013-03-29 11:08:00,52.0,39.4,30.08,SW,225,2.0,9.0,62,0.00,,,0.00,Weather View 32 v70,2013-03-29 15:08:00,
2013-03-29 11:13:00,52.0,37.7,30.08,East,90,3.0,9.0,58,0.00,,,0.00,Weather View 32 v70,2013-03-29 15:13:00,
2013-03-29 11:18:00,52.0,36.8,30.08,ENE,67,3.0,9.0,56,0.00,,,0.00,Weather View 32 v70,2013-03-29 15:18:00,
2013-03-29 11:23:00,51.0,37.2,30.08,East,90,4.0,9.0,59,0.00,,,0.00,Weather View 32 v70,2013-03-29 15:23:00,
2013-03-29 11:28:00,52.0,37.2,30.08,ENE,67,5.0,9.0,57,0.00,,,0.00,Weather View 32 v70,2013-03-29 15:28:00,
2013-03-29 11:33:00,52.0,37.2,30.08,West,270,5.0,9.0,57,0.00,,,0.00,Weather View 32 v70,2013-03-29 15:33:00,
2013-03-29 11:38:00,52.0,36.8,30.08,ENE,67,4.0,9.0,56,0.00,,,0.00,Weather View 32 v70,2013-03-29 15:38:00,
2013-03-29 11:43:00,52.0,35.8,30.08,ENE,67,1.0,9.0,54,0.00,,,0.00,Weather View 32 v70,2013-03-29 15:43:00,
2013-03-29 11:48:00,52.0,36.3,30.07,ENE,67,3.0,9.0,55,0.00,,,0.00,Weather View 32 v70,2013-03-29 15:48:00,
2013-03-29 11:53:00,52.0,35.8,30.07,East,90,3.0,7.0,54,0.00,,,0.00,Weather View 32 v70,2013-03-29 15:53:00,
2013-03-29 11:58:00,52.0,35.4,30.07,ENE,67,5.0,7.0,53,0.00,,,0.00,Weather View 32 v70,2013-03-29 15:58:00,
2013-03-29 12:03:00,53.0,36.8,30.07,ENE,67,6.0,7.0,54,0.00,,,0.00,Weather View 32 v70,2013-03-29 16:03:00,
2013-03-29 12:08:00,53.0,34.8,30.07,East,90,5.0,7.0,50,0.00,,,0.00,Weather View 32 v70,2013-03-29 16:08:00,
2013-03-29 12:13:00,53.0,33.8,30.07,ENE,67,4.0,9.0,48,0.00,,,0.00,Weather View 32 v70,2013-03-29 16:13:00,
2013-03-29 12:18:00,53.0,33.8,30.07,SW,225,1.0,9.0,48,0.00,,,0.00,Weather View 32 v70,2013-03-29 16:18:00,
2013-03-29 12:23:00,54.0,35.7,30.07,West,270,3.0,9.0,50,0.00,,,0.00,Weather View 32 v70,2013-03-29 16:23:00,
2013-03-29 12:28:00,55.0,36.2,30.07,ENE,67,5.0,9.0,49,0.00,,,0.00,Weather View 32 v70,2013-03-29 16:28:00,
2013-03-29 12:33:00,56.0,34.9,30.07,SSW,202,3.0,9.0,45,0.00,,,0.00,Weather View 32 v70,2013-03-29 16:33:00,
2013-03-29 12:38:00,57.0,35.3,30.07,ENE,67,5.0,9.0,44,0.00,,,0.00,Weather View 32 v70,2013-03-29 16:38:00,
2013-03-29 12:43:00,58.0,35.0,30.07,WSW,247,1.0,9.0,42,0.00,,,0.00,Weather View 32 v70,2013-03-29 16:43:00,
2013-03-29 12:48:00,58.0,35.0,30.07,West,270,4.0,9.0,42,0.00,,,0.00,Weather View 32 v70,2013-03-29 16:48:00,
2013-03-29 12:53:00,58.0,34.4,30.06,ENE,67,7.0,13.0,41,0.00,,,0.00,Weather View 32 v70,2013-03-29 16:53:00,
2013-03-29 12:58:00,58.0,33.1,30.06,ENE,67,6.0,13.0,39,0.00,,,0.00,Weather View 32 v70,2013-03-29 16:58:00,
2013-03-29 13:03:00,56.0,32.6,30.06,ENE,67,3.0,13.0,41,0.00,,,0.00,Weather View 32 v70,2013-03-29 17:03:00,
2013-03-29 13:08:00,56.0,32.6,30.05,ENE,67,6.0,13.0,41,0.00,,,0.00,Weather View 32 v70,2013-03-29 17:08:00,
2013-03-29 13:13:00,58.0,35.0,30.05,SE,135,0.0,13.0,42,0.00,,,0.00,Weather View 32 v70,2013-03-29 17:13:00,
2013-03-29 13:18:00,59.0,34.0,30.05,ENE,67,2.0,13.0,39,0.00,,,0.00,Weather View 32 v70,2013-03-29 17:18:00,
2013-03-29 13:23:00,59.0,33.4,30.05,WSW,247,2.0,13.0,38,0.00,,,0.00,Weather View 32 v70,2013-03-29 17:23:00,
2013-03-29 13:28:00,58.0,35.6,30.05,West,270,0.0,13.0,43,0.00,,,0.00,Weather View 32 v70,2013-03-29 17:28:00,
2013-03-29 13:33:00,56.0,34.9,30.05,ENE,67,4.0,13.0,45,0.00,,,0.00,Weather View 32 v70,2013-03-29 17:33:00,
2013-03-29 13:38:00,55.0,33.4,30.04,NE,45,3.0,13.0,44,0.00,,,0.00,Weather View 32 v70,2013-03-29 17:38:00,
2013-03-29 13:43:00,55.0,31.7,30.04,NE,45,0.0,13.0,41,0.00,,,0.00,Weather View 32 v70,2013-03-29 17:43:00,
2013-03-29 13:48:00,55.0,32.3,30.03,SSE,157,0.0,13.0,42,0.00,,,0.00,Weather View 32 v70,2013-03-29 17:48:00,
2013-03-29 13:53:00,55.0,31.1,30.03,East,90,5.0,10.0,40,0.00,,,0.00,Weather View 32 v70,2013-03-29 17:53:00,
2013-03-29 13:58:00,54.0,35.2,30.03,East,90,7.0,10.0,49,0.00,,,0.00,Weather View 32 v70,2013-03-29 17:58:00,
2013-03-29 14:03:00,53.0,35.3,30.03,ENE,67,4.0,10.0,51,0.00,,,0.00,Weather View 32 v70,2013-03-29 18:03:00,
2013-03-29 14:08:00,53.0,36.3,30.02,ENE,67,3.0,10.0,53,0.00,,,0.00,Weather View 32 v70,2013-03-29 18:08:00,
2013-03-29 14:13:00,53.0,34.3,30.02,ENE,67,3.0,10.0,49,0.00,,,0.00,Weather View 32 v70,2013-03-29 18:13:00,
2013-03-29 14:18:00,52.0,41.0,30.03,ENE,67,3.0,10.0,66,0.01,,,0.01,Weather View 32 v70,2013-03-29 18:18:00,
2013-03-29 14:23:00,52.0,40.6,30.02,SE,135,0.0,10.0,65,0.01,,,0.01,Weather View 32 v70,2013-03-29 18:23:00,
2013-03-29 14:28:00,51.0,38.4,30.01,ENE,67,3.0,10.0,62,0.01,,,0.01,Weather View 32 v70,2013-03-29 18:28:00,
2013-03-29 14:33:00,51.0,43.3,30.01,ENE,67,2.0,10.0,75,0.01,,,0.01,Weather View 32 v70,2013-03-29 18:33:00,
2013-03-29 14:38:00,52.0,39.8,30.01,ENE,67,0.0,10.0,63,0.01,,,0.01,Weather View 32 v70,2013-03-29 18:38:00,
2013-03-29 14:43:00,53.0,41.1,30.01,SSE,157,1.0,10.0,64,0.01,,,0.01,Weather View 32 v70,2013-03-29 18:43:00,
2013-03-29 14:48:00,54.0,40.0,30.01,SSE,157,2.0,10.0,59,0.01,,,0.01,Weather View 32 v70,2013-03-29 18:48:00,
2013-03-29 14:53:00,55.0,40.5,30.01,NE,45,0.0,10.0,58,0.01,,,0.01,Weather View 32 v70,2013-03-29 18:53:00,
2013-03-29 14:58:00,55.0,34.6,30.01,East,90,4.0,8.0,46,0.01,,,0.01,Weather View 32 v70,2013-03-29 18:58:00,
2013-03-29 15:03:00,55.0,35.1,30.01,NE,45,4.0,8.0,47,0.01,,,0.01,Weather View 32 v70,2013-03-29 19:03:00,
2013-03-29 15:08:00,55.0,34.6,30.01,West,270,2.0,8.0,46,0.01,,,0.01,Weather View 32 v70,2013-03-29 19:08:00,
2013-03-29 15:13:00,55.0,32.9,30.01,WNW,292,2.0,8.0,43,0.01,,,0.01,Weather View 32 v70,2013-03-29 19:13:00,
2013-03-29 15:18:00,55.0,31.7,30.01,WSW,247,1.0,8.0,41,0.00,,,0.01,Weather View 32 v70,2013-03-29 19:18:00,
2013-03-29 15:23:00,55.0,31.7,30.01,West,270,5.0,7.0,41,0.00,,,0.01,Weather View 32 v70,2013-03-29 19:23:00,
2013-03-29 15:28:00,55.0,30.4,30.01,WSW,247,2.0,7.0,39,0.00,,,0.01,Weather View 32 v70,2013-03-29 19:28:00,
2013-03-29 15:33:00,55.0,31.7,30.01,East,90,2.0,7.0,41,0.00,,,0.01,Weather View 32 v70,2013-03-29 19:33:00,
2013-03-29 15:38:00,55.0,31.1,30.01,East,90,2.0,7.0,40,0.00,,,0.01,Weather View 32 v70,2013-03-29 19:38:00,
2013-03-29 15:43:00,55.0,32.9,30.01,ENE,67,1.0,7.0,43,0.00,,,0.01,Weather View 32 v70,2013-03-29 19:43:00,
2013-03-29 15:48:00,55.0,31.1,30.01,ENE,67,6.0,7.0,40,0.00,,,0.01,Weather View 32 v70,2013-03-29 19:48:00,
2013-03-29 15:53:00,55.0,30.4,30.01,NE,45,1.0,7.0,39,0.00,,,0.01,Weather View 32 v70,2013-03-29 19:53:00,
2013-03-29 15:58:00,55.0,30.4,30.01,WNW,292,0.0,7.0,39,0.00,,,0.01,Weather View 32 v70,2013-03-29 19:58:00,
2013-03-29 16:03:00,55.0,29.8,30.01,ENE,67,2.0,7.0,38,0.00,,,0.01,Weather View 32 v70,2013-03-29 20:03:00,
2013-03-29 16:08:00,55.0,31.7,30.01,SSW,202,0.0,7.0,41,0.00,,,0.01,Weather View 32 v70,2013-03-29 20:08:00,
2013-03-29 16:13:00,55.0,29.8,30.01,NW,315,3.0,7.0,38,0.00,,,0.01,Weather View 32 v70,2013-03-29 20:13:00,
2013-03-29 16:18:00,55.0,30.4,30.01,West,270,0.0,7.0,39,0.00,,,0.01,Weather View 32 v70,2013-03-29 20:18:00,
2013-03-29 16:23:00,56.0,31.3,30.01,West,270,6.0,7.0,39,0.00,,,0.01,Weather View 32 v70,2013-03-29 20:23:00,
2013-03-29 16:28:00,56.0,30.7,30.01,WNW,292,5.0,9.0,38,0.00,,,0.01,Weather View 32 v70,2013-03-29 20:28:00,
2013-03-29 16:33:00,55.0,30.4,30.01,West,270,1.0,10.0,39,0.00,,,0.01,Weather View 32 v70,2013-03-29 20:33:00,
2013-03-29 16:38:00,55.0,31.7,30.01,WNW,292,3.0,10.0,41,0.00,,,0.01,Weather View 32 v70,2013-03-29 20:38:00,
2013-03-29 16:43:00,54.0,29.6,30.01,WSW,247,6.0,10.0,39,0.00,,,0.01,Weather View 32 v70,2013-03-29 20:43:00,
2013-03-29 16:48:00,54.0,30.2,30.01,West,270,7.0,10.0,40,0.00,,,0.01,Weather View 32 v70,2013-03-29 20:48:00,
2013-03-29 16:53:00,53.0,29.9,30.02,East,90,2.0,10.0,41,0.00,,,0.01,Weather View 32 v70,2013-03-29 20:53:00,
2013-03-29 16:58:00,53.0,31.1,30.01,NW,315,3.0,11.0,43,0.00,,,0.01,Weather View 32 v70,2013-03-29 20:58:00,
2013-03-29 17:03:00,53.0,31.1,30.02,NE,45,3.0,11.0,43,0.00,,,0.01,Weather View 32 v70,2013-03-29 21:03:00,
2013-03-29 17:09:00,53.0,31.1,30.01,ENE,67,3.0,11.0,43,0.00,,,0.01,Weather View 32 v70,2013-03-29 21:09:00,
2013-03-29 17:14:00,52.0,30.2,30.02,ENE,67,2.0,11.0,43,0.00,,,0.01,Weather View 32 v70,2013-03-29 21:14:00,
2013-03-29 17:19:00,52.0,30.2,30.02,ENE,67,3.0,11.0,43,0.00,,,0.01,Weather View 32 v70,2013-03-29 21:19:00,
2013-03-29 17:24:00,53.0,31.6,30.02,ENE,67,5.0,11.0,44,0.00,,,0.01,Weather View 32 v70,2013-03-29 21:24:00,
2013-03-29 17:29:00,53.0,31.1,30.02,ENE,67,6.0,11.0,43,0.00,,,0.01,Weather View 32 v70,2013-03-29 21:29:00,
2013-03-29 17:34:00,53.0,31.6,30.02,ENE,67,2.0,11.0,44,0.00,,,0.01,Weather View 32 v70,2013-03-29 21:34:00,
2013-03-29 17:39:00,53.0,32.7,30.02,ENE,67,4.0,11.0,46,0.00,,,0.01,Weather View 32 v70,2013-03-29 21:39:00,
2013-03-29 17:44:00,52.0,32.9,30.02,WSW,247,1.0,11.0,48,0.00,,,0.01,Weather View 32 v70,2013-03-29 21:44:00,
2013-03-29 17:49:00,52.0,33.4,30.02,ENE,67,3.0,11.0,49,0.00,,,0.01,Weather View 32 v70,2013-03-29 21:49:00,
2013-03-29 17:54:00,52.0,33.4,30.02,WNW,292,1.0,11.0,49,0.00,,,0.01,Weather View 32 v70,2013-03-29 21:54:00,
2013-03-29 17:59:00,52.0,33.9,30.02,NE,45,0.0,10.0,50,0.00,,,0.01,Weather View 32 v70,2013-03-29 21:59:00,
2013-03-29 18:04:00,51.0,33.5,30.02,ENE,67,2.0,10.0,51,0.00,,,0.01,Weather View 32 v70,2013-03-29 22:04:00,
2013-03-29 18:09:00,51.0,34.0,30.03,ENE,67,2.0,9.0,52,0.00,,,0.01,Weather View 32 v70,2013-03-29 22:09:00,
2013-03-29 18:14:00,51.0,33.5,30.03,ENE,67,1.0,9.0,51,0.00,,,0.01,Weather View 32 v70,2013-03-29 22:14:00,
2013-03-29 18:19:00,51.0,34.0,30.03,East,90,3.0,8.0,52,0.00,,,0.01,Weather View 32 v70,2013-03-29 22:19:00,
2013-03-29 18:24:00,51.0,32.5,30.03,ENE,67,5.0,10.0,49,0.00,,,0.01,Weather View 32 v70,2013-03-29 22:24:00,
2013-03-29 18:29:00,51.0,34.0,30.03,ENE,67,2.0,10.0,52,0.00,,,0.01,Weather View 32 v70,2013-03-29 22:29:00,
2013-03-29 18:34:00,51.0,33.0,30.03,ENE,67,0.0,10.0,50,0.00,,,0.01,Weather View 32 v70,2013-03-29 22:34:00,
2013-03-29 18:39:00,51.0,33.0,30.03,ENE,67,0.0,10.0,50,0.00,,,0.01,Weather View 32 v70,2013-03-29 22:39:00,
2013-03-29 18:44:00,50.0,33.0,30.03,ENE,67,0.0,10.0,52,0.00,,,0.01,Weather View 32 v70,2013-03-29 22:44:00,
2013-03-29 18:49:00,50.0,33.0,30.02,ENE,67,1.0,10.0,52,0.00,,,0.01,Weather View 32 v70,2013-03-29 22:49:00,
2013-03-29 18:54:00,50.0,33.0,30.02,ENE,67,1.0,10.0,52,0.00,,,0.01,Weather View 32 v70,2013-03-29 22:54:00,
2013-03-29 18:59:00,49.0,32.6,30.02,ENE,67,1.0,10.0,53,0.00,,,0.01,Weather View 32 v70,2013-03-29 22:59:00,
2013-03-29 19:04:00,49.0,32.6,30.02,ENE,67,0.0,10.0,53,0.00,,,0.01,Weather View 32 v70,2013-03-29 23:04:00,
2013-03-29 19:09:00,49.0,33.5,30.02,ENE,67,0.0,10.0,55,0.00,,,0.01,Weather View 32 v70,2013-03-29 23:09:00,
2013-03-29 19:14:00,48.0,33.0,30.02,ENE,67,0.0,10.0,56,0.00,,,0.01,Weather View 32 v70,2013-03-29 23:14:00,
2013-03-29 19:19:00,48.0,33.9,30.02,ENE,67,0.0,10.0,58,0.00,,,0.01,Weather View 32 v70,2013-03-29 23:19:00,
2013-03-29 19:24:00,47.0,35.8,30.02,ENE,67,0.0,6.0,65,0.00,,,0.01,Weather View 32 v70,2013-03-29 23:24:00,
2013-03-29 19:29:00,47.0,35.4,30.02,ENE,67,0.0,5.0,64,0.00,,,0.01,Weather View 32 v70,2013-03-29 23:29:00,
2013-03-29 19:34:00,46.0,36.8,30.02,ENE,67,1.0,5.0,70,0.00,,,0.01,Weather View 32 v70,2013-03-29 23:34:00,
2013-03-29 19:39:00,46.0,35.3,30.02,ENE,67,0.0,5.0,66,0.00,,,0.01,Weather View 32 v70,2013-03-29 23:39:00,
2013-03-29 19:44:00,46.0,31.6,30.02,ENE,67,2.0,4.0,57,0.00,,,0.01,Weather View 32 v70,2013-03-29 23:44:00,
2013-03-29 19:49:00,47.0,32.5,30.03,ENE,67,0.0,5.0,57,0.00,,,0.01,Weather View 32 v70,2013-03-29 23:49:00,
2013-03-29 19:54:00,46.0,30.7,30.03,ESE,112,1.0,5.0,55,0.00,,,0.01,Weather View 32 v70,2013-03-29 23:54:00,
2013-03-29 19:59:00,46.0,30.3,30.03,SE,135,0.0,5.0,54,0.00,,,0.01,Weather View 32 v70,2013-03-29 23:59:00,
2013-03-29 20:04:00,46.0,30.3,30.03,ENE,67,0.0,5.0,54,0.00,,,0.01,Weather View 32 v70,2013-03-30 00:04:00,
2013-03-29 20:09:00,46.0,31.2,30.03,ENE,67,2.0,6.0,56,0.00,,,0.01,Weather View 32 v70,2013-03-30 00:09:00,
2013-03-29 20:14:00,46.0,30.7,30.03,East,90,0.0,6.0,55,0.00,,,0.01,Weather View 32 v70,2013-03-30 00:14:00,
2013-03-29 20:19:00,46.0,31.6,30.04,East,90,1.0,6.0,57,0.00,,,0.01,Weather View 32 v70,2013-03-30 00:19:00,
2013-03-29 20:24:00,46.0,32.0,30.04,East,90,0.0,6.0,58,0.00,,,0.01,Weather View 32 v70,2013-03-30 00:24:00,
2013-03-29 20:29:00,45.0,31.1,30.04,East,90,0.0,6.0,58,0.00,,,0.01,Weather View 32 v70,2013-03-30 00:29:00,
2013-03-29 20:34:00,45.0,31.9,30.05,East,90,0.0,6.0,60,0.00,,,0.01,Weather View 32 v70,2013-03-30 00:34:00,
2013-03-29 20:39:00,45.0,32.3,30.05,East,90,0.0,6.0,61,0.00,,,0.01,Weather View 32 v70,2013-03-30 00:39:00,
2013-03-29 20:44:00,45.0,32.3,30.05,East,90,0.0,6.0,61,0.00,,,0.01,Weather View 32 v70,2013-03-30 00:44:00,
2013-03-29 20:49:00,44.0,32.2,30.05,East,90,0.0,6.0,63,0.00,,,0.01,Weather View 32 v70,2013-03-30 00:49:00,
2013-03-29 20:54:00,44.0,33.0,30.05,East,90,0.0,6.0,65,0.00,,,0.01,Weather View 32 v70,2013-03-30 00:54:00,
2013-03-29 20:59:00,43.0,33.9,30.04,East,90,0.0,6.0,70,0.00,,,0.01,Weather View 32 v70,2013-03-30 00:59:00,
2013-03-29 21:04:00,43.0,34.6,30.05,East,90,0.0,6.0,72,0.00,,,0.01,Weather View 32 v70,2013-03-30 01:04:00,
2013-03-29 21:09:00,43.0,35.3,30.05,East,90,0.0,5.0,74,0.00,,,0.01,Weather View 32 v70,2013-03-30 01:09:00,
2013-03-29 21:14:00,42.0,36.9,30.05,East,90,0.0,3.0,82,0.00,,,0.01,Weather View 32 v70,2013-03-30 01:14:00,
2013-03-29 21:19:00,42.0,37.8,30.05,East,90,0.0,3.0,85,0.00,,,0.01,Weather View 32 v70,2013-03-30 01:19:00,
2013-03-29 21:24:00,42.0,38.7,30.05,East,90,1.0,2.0,88,0.00,,,0.01,Weather View 32 v70,2013-03-30 01:24:00,
2013-03-29 21:29:00,42.0,32.9,30.05,East,90,2.0,3.0,70,0.00,,,0.01,Weather View 32 v70,2013-03-30 01:29:00,
2013-03-29 21:34:00,41.0,30.1,30.05,East,90,0.0,3.0,65,0.00,,,0.01,Weather View 32 v70,2013-03-30 01:34:00,
2013-03-29 21:39:00,41.0,31.2,30.05,East,90,0.0,3.0,68,0.00,,,0.01,Weather View 32 v70,2013-03-30 01:39:00,
2013-03-29 21:44:00,41.0,33.0,30.05,East,90,0.0,3.0,73,0.00,,,0.01,Weather View 32 v70,2013-03-30 01:44:00,
2013-03-29 21:49:00,42.0,35.0,30.05,ENE,67,0.0,5.0,76,0.00,,,0.01,Weather View 32 v70,2013-03-30 01:49:00,
2013-03-29 21:54:00,43.0,35.9,30.05,ENE,67,2.0,5.0,76,0.00,,,0.01,Weather View 32 v70,2013-03-30 01:54:00,
2013-03-29 21:59:00,43.0,35.9,30.05,ENE,67,0.0,5.0,76,0.00,,,0.01,Weather View 32 v70,2013-03-30 01:59:00,
2013-03-29 22:04:00,43.0,35.9,30.05,ENE,67,1.0,5.0,76,0.00,,,0.01,Weather View 32 v70,2013-03-30 02:04:00,
2013-03-29 22:09:00,43.0,35.9,30.05,ENE,67,0.0,5.0,76,0.00,,,0.01,Weather View 32 v70,2013-03-30 02:09:00,
2013-03-29 22:14:00,43.0,36.3,30.05,East,90,0.0,5.0,77,0.00,,,0.01,Weather View 32 v70,2013-03-30 02:14:00,
2013-03-29 22:19:00,43.0,36.3,30.05,East,90,0.0,5.0,77,0.00,,,0.01,Weather View 32 v70,2013-03-30 02:19:00,
2013-03-29 22:24:00,43.0,35.9,30.05,East,90,0.0,5.0,76,0.00,,,0.01,Weather View 32 v70,2013-03-30 02:24:00,
2013-03-29 22:29:00,43.0,35.9,30.05,East,90,0.0,5.0,76,0.00,,,0.01,Weather View 32 v70,2013-03-30 02:29:00,
2013-03-29 22:34:00,43.0,35.9,30.05,East,90,0.0,5.0,76,0.00,,,0.01,Weather View 32 v70,2013-03-30 02:34:00,
2013-03-29 22:39:00,43.0,35.9,30.05,East,90,0.0,5.0,76,0.00,,,0.01,Weather View 32 v70,2013-03-30 02:39:00,
2013-03-29 22:45:00,43.0,35.9,30.05,East,90,0.0,5.0,76,0.00,,,0.01,Weather View 32 v70,2013-03-30 02:45:00,
2013-03-29 22:50:00,43.0,35.9,30.05,East,90,0.0,4.0,76,0.00,,,0.01,Weather View 32 v70,2013-03-30 02:50:00,
2013-03-29 22:55:00,43.0,36.3,30.05,East,90,0.0,4.0,77,0.00,,,0.01,Weather View 32 v70,2013-03-30 02:55:00,
2013-03-29 23:00:00,43.0,36.3,30.05,West,270,0.0,4.0,77,0.00,,,0.01,Weather View 32 v70,2013-03-30 03:00:00,
2013-03-29 23:05:00,43.0,36.3,30.05,ENE,67,2.0,3.0,77,0.00,,,0.01,Weather View 32 v70,2013-03-30 03:05:00,
2013-03-29 23:10:00,43.0,35.9,30.05,ENE,67,1.0,3.0,76,0.00,,,0.01,Weather View 32 v70,2013-03-30 03:10:00,
2013-03-29 23:15:00,43.0,36.3,30.05,East,90,0.0,5.0,77,0.00,,,0.01,Weather View 32 v70,2013-03-30 03:15:00,
2013-03-29 23:20:00,43.0,36.3,30.05,East,90,0.0,5.0,77,0.00,,,0.01,Weather View 32 v70,2013-03-30 03:20:00,
2013-03-29 23:25:00,43.0,36.6,30.05,WSW,247,1.0,5.0,78,0.00,,,0.01,Weather View 32 v70,2013-03-30 03:25:00,
2013-03-29 23:30:00,43.0,36.9,30.05,WSW,247,1.0,5.0,79,0.00,,,0.01,Weather View 32 v70,2013-03-30 03:30:00,
2013-03-29 23:35:00,43.0,36.9,30.05,WSW,247,0.0,5.0,79,0.00,,,0.01,Weather View 32 v70,2013-03-30 03:35:00,
2013-03-29 23:40:00,43.0,36.9,30.05,SSW,202,0.0,5.0,79,0.00,,,0.01,Weather View 32 v70,2013-03-30 03:40:00,
2013-03-29 23:45:00,43.0,36.9,30.06,SW,225,0.0,5.0,79,0.00,,,0.01,Weather View 32 v70,2013-03-30 03:45:00,
2013-03-29 23:50:00,43.0,36.9,30.06,SW,225,0.0,5.0,79,0.00,,,0.01,Weather View 32 v70,2013-03-30 03:50:00,
2013-03-29 23:55:00,43.0,36.9,30.06,SW,225,0.0,5.0,79,0.00,,,0.01,Weather View 32 v70,2013-03-30 03:55:00,